createdAt,value
2023-03-08T00:01:49.395Z,13.89
2023-03-08T00:04:18.790Z,13.89
2023-03-08T00:06:48.155Z,13.88
2023-03-08T00:09:17.347Z,13.89
2023-03-08T00:11:46.640Z,13.88
2023-03-08T00:14:15.915Z,13.88
2023-03-08T00:16:45.166Z,13.89
2023-03-08T00:19:14.370Z,13.88
2023-03-08T00:21:43.089Z,13.88
2023-03-08T00:24:12.331Z,13.88
2023-03-08T00:26:41.547Z,13.88
2023-03-08T00:29:12.146Z,13.83
2023-03-08T00:31:41.122Z,13.88
2023-03-08T00:34:10.004Z,13.87
2023-03-08T00:36:42.386Z,13.86
2023-03-08T00:39:11.235Z,13.87
2023-03-08T00:41:40.078Z,13.85
2023-03-08T00:44:08.474Z,13.86
2023-03-08T00:46:36.785Z,13.85
2023-03-08T00:49:05.701Z,13.85
2023-03-08T00:51:34.681Z,13.84
2023-03-08T00:54:03.316Z,13.84
2023-03-08T00:56:31.511Z,13.82
2023-03-08T00:59:00.331Z,13.82
2023-03-08T01:01:29.685Z,13.83
2023-03-08T01:03:59.018Z,13.82
2023-03-08T01:06:27.912Z,13.83
2023-03-08T01:08:56.614Z,13.83
2023-03-08T01:11:25.506Z,13.83
2023-03-08T01:13:53.763Z,13.83
2023-03-08T01:16:23.029Z,13.83
2023-03-08T01:18:51.442Z,13.82
2023-03-08T01:21:21.075Z,13.81
2023-03-08T01:23:49.552Z,13.82
2023-03-08T01:26:18.795Z,13.81
2023-03-08T01:28:48.236Z,13.81
2023-03-08T01:31:17.115Z,13.80
2023-03-08T01:33:46.047Z,13.80
2023-03-08T01:36:16.046Z,13.81
2023-03-08T01:38:45.584Z,13.82
2023-03-08T01:41:14.498Z,13.81
2023-03-08T01:43:43.581Z,13.81
2023-03-08T01:46:13.447Z,13.80
2023-03-08T01:48:43.181Z,13.80
2023-03-08T01:51:17.268Z,13.80
2023-03-08T01:53:46.092Z,13.79
2023-03-08T01:56:14.907Z,13.79
2023-03-08T01:58:43.300Z,13.79
2023-03-08T02:01:12.163Z,13.77
2023-03-08T02:03:47.152Z,13.77
2023-03-08T02:06:18.614Z,13.77
2023-03-08T02:08:47.390Z,13.76
2023-03-08T02:11:16.258Z,13.75
2023-03-08T02:13:45.102Z,13.75
2023-03-08T02:16:14.773Z,13.74
2023-03-08T02:18:43.689Z,13.73
2023-03-08T02:21:12.615Z,13.72
2023-03-08T02:23:41.595Z,13.71
2023-03-08T02:26:10.469Z,13.70
2023-03-08T02:28:39.684Z,13.70
2023-03-08T02:31:08.432Z,13.69
2023-03-08T02:33:38.838Z,13.70
2023-03-08T02:36:07.979Z,13.70
2023-03-08T02:38:36.852Z,13.68
2023-03-08T02:41:05.677Z,13.69
2023-03-08T02:43:34.512Z,13.69
2023-03-08T02:46:03.665Z,13.67
2023-03-08T02:48:33.070Z,13.67
2023-03-08T02:51:01.912Z,13.64
2023-03-08T02:53:30.401Z,13.64
2023-03-08T02:56:00.035Z,13.63
2023-03-08T02:58:29.638Z,13.64
2023-03-08T03:00:58.580Z,13.63
2023-03-08T03:03:27.242Z,13.62
2023-03-08T03:05:55.562Z,13.63
2023-03-08T03:08:30.306Z,13.62
2023-03-08T03:10:59.121Z,13.61
2023-03-08T03:13:27.930Z,13.61
2023-03-08T03:15:56.624Z,13.61
2023-03-08T03:18:25.651Z,13.60
2023-03-08T03:20:54.883Z,13.60
2023-03-08T03:23:23.726Z,13.58
2023-03-08T03:25:54.677Z,13.58
2023-03-08T03:28:23.704Z,13.56
2023-03-08T03:30:52.604Z,13.55
2023-03-08T03:33:20.863Z,13.54
2023-03-08T03:35:50.208Z,13.54
2023-03-08T03:38:19.530Z,13.54
2023-03-08T03:40:48.337Z,13.52
2023-03-08T03:43:17.515Z,13.51
2023-03-08T03:45:46.425Z,13.49
2023-03-08T03:48:15.334Z,13.49
2023-03-08T03:50:44.243Z,13.51
2023-03-08T03:53:15.588Z,13.50
2023-03-08T03:55:44.393Z,13.51
2023-03-08T03:58:14.156Z,13.51
2023-03-08T04:00:43.495Z,13.50
2023-03-08T04:03:22.260Z,13.51
2023-03-08T04:05:51.958Z,13.51
2023-03-08T04:08:21.243Z,13.50
2023-03-08T04:10:49.765Z,13.50
2023-03-08T04:13:18.131Z,13.50
2023-03-08T04:15:47.468Z,13.51
2023-03-08T04:18:16.457Z,13.50
2023-03-08T04:20:46.969Z,13.51
2023-03-08T04:23:16.469Z,13.49
2023-03-08T04:25:46.840Z,13.51
2023-03-08T04:28:17.052Z,13.51
2023-03-08T04:30:46.627Z,13.50
2023-03-08T04:33:17.676Z,13.51
2023-03-08T04:35:48.946Z,13.51
2023-03-08T04:38:20.516Z,13.52
2023-03-08T04:40:51.978Z,13.52
2023-03-08T04:43:20.401Z,13.52
2023-03-08T04:45:49.184Z,13.52
2023-03-08T04:48:18.026Z,13.52
2023-03-08T04:50:48.121Z,13.51
2023-03-08T04:53:16.625Z,13.52
2023-03-08T04:55:45.037Z,13.52
2023-03-08T04:58:15.260Z,13.52
2023-03-08T05:00:44.165Z,13.52
2023-03-08T05:03:13.437Z,13.53
2023-03-08T05:05:42.407Z,13.52
2023-03-08T05:08:10.565Z,13.52
2023-03-08T05:10:39.370Z,13.50
2023-03-08T05:13:08.104Z,13.49
2023-03-08T05:15:35.596Z,13.50
2023-03-08T05:18:04.144Z,13.50
2023-03-08T05:20:32.983Z,13.50
2023-03-08T05:23:01.906Z,13.48
2023-03-08T05:25:37.523Z,13.48
2023-03-08T05:28:06.726Z,13.48
2023-03-08T05:30:35.973Z,13.49
2023-03-08T05:33:04.774Z,13.49
2023-03-08T05:35:34.007Z,13.50
2023-03-08T05:38:02.934Z,13.49
2023-03-08T05:40:31.790Z,13.49
2023-03-08T05:43:01.736Z,13.49
2023-03-08T05:45:31.567Z,13.48
2023-03-08T05:48:00.533Z,13.49
2023-03-08T05:50:33.409Z,13.48
2023-03-08T05:53:02.358Z,13.49
2023-03-08T05:55:30.978Z,13.48
2023-03-08T05:57:59.926Z,13.49
2023-03-08T06:00:29.003Z,13.48
2023-03-08T06:02:59.379Z,13.50
2023-03-08T06:05:28.394Z,13.50
2023-03-08T06:07:58.867Z,13.51
2023-03-08T06:10:27.471Z,13.52
2023-03-08T06:12:56.326Z,13.52
2023-03-08T06:15:25.841Z,13.52
2023-03-08T06:17:54.448Z,13.52
2023-03-08T06:20:25.877Z,13.53
2023-03-08T06:22:54.243Z,13.53
2023-03-08T06:25:23.492Z,13.54
2023-03-08T06:27:52.291Z,13.54
2023-03-08T06:30:32.336Z,13.55
2023-03-08T06:33:01.100Z,13.54
2023-03-08T06:35:29.411Z,13.55
2023-03-08T06:38:03.102Z,13.55
2023-03-08T06:40:34.354Z,13.52
2023-03-08T06:43:02.669Z,13.56
2023-03-08T06:45:33.848Z,13.56
2023-03-08T06:48:02.788Z,13.55
2023-03-08T06:50:31.636Z,13.56
2023-03-08T06:53:00.184Z,13.56
2023-03-08T06:55:45.253Z,13.55
2023-03-08T06:58:14.223Z,13.56
2023-03-08T07:00:44.796Z,13.56
2023-03-08T07:03:13.617Z,13.55
2023-03-08T07:05:42.571Z,13.55
2023-03-08T07:08:11.110Z,13.56
2023-03-08T07:10:40.342Z,13.56
2023-03-08T07:13:09.740Z,13.56
2023-03-08T07:15:38.999Z,13.55
2023-03-08T07:18:08.290Z,13.55
2023-03-08T07:20:37.603Z,13.57
2023-03-08T07:23:06.983Z,13.56
2023-03-08T07:25:36.321Z,13.56
2023-03-08T07:28:05.572Z,13.55
2023-03-08T07:30:34.791Z,13.55
2023-03-08T07:33:04.045Z,13.55
2023-03-08T07:35:33.326Z,13.55
2023-03-08T07:38:02.133Z,13.54
2023-03-08T07:40:31.423Z,13.55
2023-03-08T07:43:00.726Z,13.54
2023-03-08T07:45:37.232Z,13.54
2023-03-08T07:48:06.505Z,13.55
2023-03-08T07:50:35.349Z,13.55
2023-03-08T07:53:03.979Z,13.55
2023-03-08T07:55:32.684Z,13.55
2023-03-08T07:58:01.892Z,13.55
2023-03-08T08:00:31.098Z,13.56
2023-03-08T08:03:00.407Z,13.57
2023-03-08T08:05:29.801Z,13.57
2023-03-08T08:07:59.024Z,13.58
2023-03-08T08:10:28.288Z,13.58
2023-03-08T08:12:57.510Z,13.58
2023-03-08T08:15:26.692Z,13.58
2023-03-08T08:17:55.849Z,13.59
2023-03-08T08:20:25.244Z,13.60
2023-03-08T08:22:54.534Z,13.63
2023-03-08T08:25:23.942Z,13.63
2023-03-08T08:27:53.968Z,13.66
2023-03-08T08:30:22.141Z,13.68
2023-03-08T08:32:51.312Z,13.69
2023-03-08T08:35:20.725Z,13.71
2023-03-08T08:37:49.930Z,13.73
2023-03-08T08:40:19.160Z,13.73
2023-03-08T08:42:49.128Z,13.74
2023-03-08T08:45:22.063Z,13.76
2023-03-08T08:47:50.509Z,13.77
2023-03-08T08:50:19.039Z,13.78
2023-03-08T08:52:47.835Z,13.80
2023-03-08T08:55:17.276Z,13.82
2023-03-08T08:57:49.903Z,13.85
2023-03-08T09:00:19.278Z,13.88
2023-03-08T09:02:52.322Z,13.92
2023-03-08T09:05:21.209Z,13.94
2023-03-08T09:07:50.135Z,13.96
2023-03-08T09:10:19.411Z,13.98
2023-03-08T09:12:48.742Z,14.00
2023-03-08T09:15:17.803Z,14.00
2023-03-08T09:17:46.449Z,14.01
2023-03-08T09:20:15.917Z,14.03
2023-03-08T09:22:44.738Z,14.05
2023-03-08T09:25:14.213Z,14.06
2023-03-08T09:27:43.635Z,14.06
2023-03-08T09:30:12.916Z,14.09
2023-03-08T09:32:41.978Z,14.12
2023-03-08T09:35:10.132Z,14.15
2023-03-08T09:37:39.371Z,14.19
2023-03-08T09:40:07.882Z,14.23
2023-03-08T09:42:36.495Z,14.24
2023-03-08T09:45:07.383Z,14.31
2023-03-08T09:47:35.907Z,14.33
2023-03-08T09:50:04.524Z,14.36
2023-03-08T09:52:33.377Z,14.35
2023-03-08T09:55:02.270Z,14.42
2023-03-08T09:57:31.140Z,14.45
2023-03-08T10:00:00.329Z,14.49
2023-03-08T10:02:29.587Z,14.55
2023-03-08T10:05:11.909Z,14.61
2023-03-08T10:07:41.767Z,14.67
2023-03-08T10:10:11.060Z,14.69
2023-03-08T10:12:40.262Z,14.73
2023-03-08T10:15:09.581Z,14.80
2023-03-08T10:17:38.977Z,14.88
2023-03-08T10:20:07.551Z,14.95
2023-03-08T10:22:36.138Z,15.02
2023-03-08T10:25:04.957Z,15.10
2023-03-08T10:27:34.293Z,15.16
2023-03-08T10:30:03.160Z,15.17
2023-03-08T10:32:32.142Z,15.19
2023-03-08T10:35:01.142Z,15.21
2023-03-08T10:37:30.064Z,15.23
2023-03-08T10:39:59.356Z,15.23
2023-03-08T10:42:27.731Z,15.24
2023-03-08T10:44:57.013Z,15.26
2023-03-08T10:47:26.244Z,15.27
2023-03-08T10:49:55.562Z,15.30
2023-03-08T10:52:24.769Z,15.33
2023-03-08T10:54:54.798Z,15.37
2023-03-08T10:57:22.958Z,15.45
2023-03-08T10:59:52.241Z,15.52
2023-03-08T11:02:21.166Z,15.60
2023-03-08T11:04:50.451Z,15.68
2023-03-08T11:07:19.793Z,15.77
2023-03-08T11:09:49.182Z,15.81
2023-03-08T11:12:18.008Z,15.88
2023-03-08T11:14:47.366Z,15.91
2023-03-08T11:17:16.772Z,15.93
2023-03-08T11:19:46.098Z,15.90
2023-03-08T11:22:15.030Z,15.85
2023-03-08T11:24:43.918Z,15.79
2023-03-08T11:27:13.284Z,15.74
2023-03-08T11:29:42.835Z,15.71
2023-03-08T11:32:11.379Z,15.70
2023-03-08T11:34:40.686Z,15.71
2023-03-08T11:37:13.633Z,15.72
2023-03-08T11:39:42.572Z,15.72
2023-03-08T11:42:12.527Z,15.74
2023-03-08T11:44:41.401Z,15.76
2023-03-08T11:47:10.699Z,15.76
2023-03-08T11:49:39.960Z,15.75
2023-03-08T11:52:09.199Z,15.74
2023-03-08T11:54:38.126Z,15.72
2023-03-08T11:57:07.405Z,15.71
2023-03-08T11:59:36.678Z,15.67
2023-03-08T12:02:05.480Z,15.65
2023-03-08T12:04:34.986Z,15.60
2023-03-08T12:07:04.341Z,15.58
2023-03-08T12:09:33.678Z,15.53
2023-03-08T12:12:03.538Z,15.51
2023-03-08T12:14:32.194Z,15.49
2023-03-08T12:17:03.287Z,15.45
2023-03-08T12:19:32.035Z,15.43
2023-03-08T12:22:00.888Z,15.40
2023-03-08T12:24:33.105Z,15.37
2023-03-08T12:27:01.777Z,15.35
2023-03-08T12:29:31.132Z,15.35
2023-03-08T12:32:00.559Z,15.37
2023-03-08T12:34:29.394Z,15.45
2023-03-08T12:36:58.781Z,15.56
2023-03-08T12:39:28.141Z,15.68
2023-03-08T12:41:57.176Z,15.72
2023-03-08T12:44:25.744Z,15.70
2023-03-08T12:47:03.035Z,15.69
2023-03-08T12:49:33.336Z,15.63
2023-03-08T12:52:02.803Z,15.56
2023-03-08T12:54:36.052Z,15.48
2023-03-08T12:57:05.018Z,15.41
2023-03-08T12:59:33.653Z,15.36
2023-03-08T13:02:02.437Z,15.31
2023-03-08T13:04:40.996Z,15.28
2023-03-08T13:07:10.800Z,15.24
2023-03-08T13:09:39.700Z,15.22
2023-03-08T13:12:08.267Z,15.20
2023-03-08T13:14:36.854Z,15.18
2023-03-08T13:17:06.160Z,15.16
2023-03-08T13:19:35.469Z,15.16
2023-03-08T13:22:04.841Z,15.13
2023-03-08T13:24:34.159Z,15.10
2023-03-08T13:27:02.965Z,15.06
2023-03-08T13:29:32.268Z,15.04
2023-03-08T13:32:01.140Z,15.02
2023-03-08T13:34:34.516Z,14.98
2023-03-08T13:37:03.273Z,14.97
2023-03-08T13:39:32.526Z,14.97
2023-03-08T13:42:02.110Z,14.96
2023-03-08T13:44:31.581Z,14.96
2023-03-08T13:47:00.904Z,14.94
2023-03-08T13:49:29.777Z,14.94
2023-03-08T13:51:58.648Z,14.94
2023-03-08T13:54:26.824Z,14.94
2023-03-08T13:56:55.756Z,14.94
2023-03-08T13:59:24.711Z,14.95
2023-03-08T14:01:53.058Z,14.93
2023-03-08T14:04:21.805Z,14.92
2023-03-08T14:06:50.558Z,14.91
2023-03-08T14:09:19.831Z,14.90
2023-03-08T14:11:50.388Z,14.91
2023-03-08T14:14:19.372Z,14.90
2023-03-08T14:16:49.495Z,14.91
2023-03-08T14:19:18.720Z,14.91
2023-03-08T14:21:46.964Z,14.91
2023-03-08T14:24:15.830Z,14.90
2023-03-08T14:26:45.153Z,14.90
2023-03-08T14:29:14.582Z,14.88
2023-03-08T14:31:43.976Z,14.89
2023-03-08T14:34:13.081Z,14.90
2023-03-08T14:36:41.842Z,14.89
2023-03-08T14:39:10.359Z,14.88
2023-03-08T14:41:38.955Z,14.86
2023-03-08T14:44:08.236Z,14.84
2023-03-08T14:46:36.594Z,14.84
2023-03-08T14:49:05.902Z,14.83
2023-03-08T14:51:35.275Z,14.82
2023-03-08T14:54:04.584Z,14.81
2023-03-08T14:56:33.916Z,14.79
2023-03-08T14:59:03.111Z,14.78
2023-03-08T15:01:32.374Z,14.76
2023-03-08T15:04:01.878Z,14.74
2023-03-08T15:06:31.036Z,14.74
2023-03-08T15:08:59.226Z,14.72
2023-03-08T15:11:28.118Z,14.71
2023-03-08T15:13:57.015Z,14.70
2023-03-08T15:16:26.361Z,14.68
2023-03-08T15:18:55.684Z,14.67
2023-03-08T15:21:24.524Z,14.66
2023-03-08T15:23:53.555Z,14.65
2023-03-08T15:26:22.221Z,14.63
2023-03-08T15:28:50.828Z,14.63
2023-03-08T15:31:19.467Z,14.59
2023-03-08T15:33:48.610Z,14.59
2023-03-08T15:36:18.110Z,14.57
2023-03-08T15:38:47.571Z,14.57
2023-03-08T15:41:16.873Z,14.55
2023-03-08T15:43:45.822Z,14.54
2023-03-08T15:46:14.361Z,14.53
2023-03-08T15:48:43.046Z,14.51
2023-03-08T15:51:12.197Z,14.50
2023-03-08T15:53:41.403Z,14.49
2023-03-08T15:56:10.181Z,14.49
2023-03-08T15:58:39.368Z,14.48
2023-03-08T16:01:08.460Z,14.47
2023-03-08T16:03:36.606Z,14.47
2023-03-08T16:06:05.521Z,14.45
2023-03-08T16:08:34.738Z,14.43
2023-03-08T16:11:03.976Z,14.43
2023-03-08T16:13:32.227Z,14.41
2023-03-08T16:16:01.422Z,14.40
2023-03-08T16:18:30.472Z,14.39
2023-03-08T16:20:59.138Z,14.38
2023-03-08T16:23:28.104Z,14.35
2023-03-08T16:26:08.644Z,14.35
2023-03-08T16:28:42.841Z,14.34
2023-03-08T16:31:12.930Z,14.32
2023-03-08T16:33:42.306Z,14.30
2023-03-08T16:36:11.512Z,14.29
2023-03-08T16:38:40.222Z,14.29
2023-03-08T16:41:13.616Z,14.26
2023-03-08T16:43:47.368Z,14.25
2023-03-08T16:46:17.270Z,14.25
2023-03-08T16:48:46.608Z,14.24
2023-03-08T16:51:15.808Z,14.21
2023-03-08T16:53:45.080Z,14.20
2023-03-08T16:56:13.482Z,14.19
2023-03-08T16:58:41.826Z,14.19
2023-03-08T17:01:11.138Z,14.18
2023-03-08T17:03:40.442Z,14.16
2023-03-08T17:06:09.684Z,14.16
2023-03-08T17:08:38.732Z,14.15
2023-03-08T17:11:07.436Z,14.13
2023-03-08T17:13:36.915Z,14.13
2023-03-08T17:16:06.269Z,14.11
2023-03-08T17:18:35.566Z,14.11
2023-03-08T17:21:04.784Z,14.10
2023-03-08T17:23:34.016Z,14.08
2023-03-08T17:26:03.238Z,14.08
2023-03-08T17:28:32.739Z,14.08
2023-03-08T17:31:01.418Z,14.06
2023-03-08T17:33:30.001Z,14.05
2023-03-08T17:35:59.380Z,14.05
2023-03-08T17:38:28.747Z,14.04
2023-03-08T17:40:58.057Z,14.04
2023-03-08T17:43:26.819Z,14.03
2023-03-08T17:45:55.760Z,14.03
2023-03-08T17:48:24.067Z,14.02
2023-03-08T17:50:53.458Z,14.02
2023-03-08T17:53:22.770Z,14.01
2023-03-08T17:55:52.127Z,14.01
2023-03-08T17:58:21.044Z,14.02
2023-03-08T18:00:50.364Z,14.00
2023-03-08T18:03:19.691Z,14.00
2023-03-08T18:05:48.645Z,14.00
2023-03-08T18:08:16.821Z,14.00
2023-03-08T18:10:46.059Z,13.98
2023-03-08T18:13:15.349Z,13.98
2023-03-08T18:15:44.800Z,13.97
2023-03-08T18:18:13.645Z,13.97
2023-03-08T18:20:42.445Z,13.98
2023-03-08T18:23:15.322Z,13.98
2023-03-08T18:25:44.702Z,13.96
2023-03-08T18:28:14.095Z,13.96
2023-03-08T18:30:43.334Z,13.95
2023-03-08T18:33:12.656Z,13.96
2023-03-08T18:35:41.163Z,13.95
2023-03-08T18:38:09.841Z,13.95
2023-03-08T18:40:42.287Z,13.94
2023-03-08T18:43:10.968Z,13.94
2023-03-08T18:45:39.886Z,13.93
2023-03-08T18:48:08.193Z,13.92
2023-03-08T18:50:37.013Z,13.92
2023-03-08T18:53:06.317Z,13.92
2023-03-08T18:55:35.599Z,13.91
2023-03-08T18:58:04.804Z,13.91
2023-03-08T19:00:34.036Z,13.90
2023-03-08T19:03:03.248Z,13.90
2023-03-08T19:05:32.288Z,13.91
2023-03-08T19:08:03.126Z,13.91
2023-03-08T19:10:33.298Z,13.89
2023-03-08T19:13:02.638Z,13.89
2023-03-08T19:15:31.483Z,13.88
2023-03-08T19:18:00.751Z,13.88
2023-03-08T19:20:29.535Z,13.89
2023-03-08T19:22:58.829Z,13.88
2023-03-08T19:25:28.144Z,13.88
2023-03-08T19:27:57.801Z,13.88
2023-03-08T19:30:27.265Z,13.86
2023-03-08T19:32:56.528Z,13.87
2023-03-08T19:35:25.875Z,13.86
2023-03-08T19:37:55.113Z,13.86
2023-03-08T19:40:24.323Z,13.85
2023-03-08T19:42:53.646Z,13.85
2023-03-08T19:45:23.314Z,13.85
2023-03-08T19:47:51.475Z,13.85
2023-03-08T19:50:20.334Z,13.85
2023-03-08T19:52:49.475Z,13.85
2023-03-08T19:55:18.724Z,13.84
2023-03-08T19:57:47.912Z,13.84
2023-03-08T20:00:17.230Z,13.83
2023-03-08T20:02:45.765Z,13.83
2023-03-08T20:05:14.487Z,13.83
2023-03-08T20:07:43.546Z,13.82
2023-03-08T20:10:16.319Z,13.83
2023-03-08T20:12:45.247Z,13.83
2023-03-08T20:15:14.479Z,13.78
2023-03-08T20:17:43.720Z,13.81
2023-03-08T20:20:12.326Z,13.80
2023-03-08T20:22:40.941Z,13.81
2023-03-08T20:25:09.799Z,13.81
2023-03-08T20:27:39.126Z,13.81
2023-03-08T20:30:08.007Z,13.79
2023-03-08T20:32:37.325Z,13.80
2023-03-08T20:35:06.750Z,13.79
2023-03-08T20:37:36.007Z,13.79
2023-03-08T20:40:05.253Z,13.79
2023-03-08T20:42:34.452Z,13.78
2023-03-08T20:45:03.074Z,13.79
2023-03-08T20:47:31.360Z,13.77
2023-03-08T20:50:00.206Z,13.77
2023-03-08T20:52:29.377Z,13.76
2023-03-08T20:54:58.603Z,13.75
2023-03-08T20:57:26.887Z,13.76
2023-03-08T20:59:55.995Z,13.76
2023-03-08T21:02:24.225Z,13.77
2023-03-08T21:04:53.382Z,13.76
2023-03-08T21:07:22.595Z,13.75
2023-03-08T21:09:55.985Z,13.74
2023-03-08T21:12:25.286Z,13.74
2023-03-08T21:14:54.088Z,13.74
2023-03-08T21:17:23.381Z,13.73
2023-03-08T21:19:52.705Z,13.73
2023-03-08T21:22:21.991Z,13.73
2023-03-08T21:24:51.445Z,13.72
2023-03-08T21:27:20.717Z,13.71
2023-03-08T21:29:49.997Z,13.72
2023-03-08T21:32:18.790Z,13.71
2023-03-08T21:34:47.767Z,13.70
2023-03-08T21:37:16.456Z,13.72
2023-03-08T21:39:45.772Z,13.71
2023-03-08T21:42:14.566Z,13.70
2023-03-08T21:44:43.854Z,13.71
2023-03-08T21:47:12.747Z,13.70
2023-03-08T21:49:41.558Z,13.70
2023-03-08T21:52:10.758Z,13.70
2023-03-08T21:54:40.025Z,13.71
2023-03-08T21:57:09.148Z,13.69
2023-03-08T21:59:37.509Z,13.70
2023-03-08T22:02:06.200Z,13.69
2023-03-08T22:04:35.055Z,13.69
2023-03-08T22:07:04.015Z,13.69
2023-03-08T22:09:32.784Z,13.68
2023-03-08T22:12:01.587Z,13.68
2023-03-08T22:14:33.124Z,13.67
2023-03-08T22:17:02.496Z,13.67
2023-03-08T22:19:31.721Z,13.66
2023-03-08T22:22:00.069Z,13.66
2023-03-08T22:24:28.867Z,13.66
2023-03-08T22:26:58.192Z,13.66
2023-03-08T22:29:27.467Z,13.66
2023-03-08T22:31:56.331Z,13.66
2023-03-08T22:34:25.780Z,13.65
2023-03-08T22:36:54.985Z,13.65
2023-03-08T22:39:23.951Z,13.65
2023-03-08T22:41:53.336Z,13.65
2023-03-08T22:44:22.606Z,13.64
2023-03-08T22:46:51.989Z,13.64
2023-03-08T22:49:25.320Z,13.64
2023-03-08T22:51:54.531Z,13.63
2023-03-08T22:54:22.945Z,13.61
2023-03-08T22:56:51.675Z,13.59
2023-03-08T22:59:20.926Z,13.63
2023-03-08T23:01:49.924Z,13.61
2023-03-08T23:04:18.606Z,13.63
2023-03-08T23:06:48.020Z,13.63
2023-03-08T23:09:17.328Z,13.61
2023-03-08T23:11:46.592Z,13.62
2023-03-08T23:14:15.404Z,13.61
2023-03-08T23:16:43.978Z,13.61
2023-03-08T23:19:12.770Z,13.61
2023-03-08T23:21:42.052Z,13.59
2023-03-08T23:24:10.573Z,13.59
2023-03-08T23:26:39.222Z,13.56
2023-03-08T23:29:08.822Z,13.60
2023-03-08T23:31:38.338Z,13.58
2023-03-08T23:34:07.595Z,13.59
2023-03-08T23:36:37.056Z,13.58
2023-03-08T23:39:10.178Z,13.58
2023-03-08T23:41:38.987Z,13.58
2023-03-08T23:44:07.977Z,13.57
2023-03-08T23:46:36.547Z,13.59
2023-03-08T23:49:05.705Z,13.58
2023-03-08T23:51:34.480Z,13.58
2023-03-08T23:54:03.173Z,13.57
2023-03-08T23:56:32.486Z,13.58
2023-03-08T23:59:01.805Z,13.57
